createdAt,value
2022-08-01T00:00:09.176Z,19.93
2022-08-01T00:01:13.966Z,19.80
2022-08-01T00:02:15.499Z,19.67
2022-08-01T00:03:17.062Z,19.65
2022-08-01T00:04:18.519Z,19.58
2022-08-01T00:05:19.965Z,19.45
2022-08-01T00:06:21.421Z,19.29
2022-08-01T00:07:22.918Z,19.30
2022-08-01T00:08:24.414Z,19.18
2022-08-01T00:09:25.940Z,19.23
2022-08-01T00:10:27.911Z,19.19
2022-08-01T00:11:29.405Z,19.14
2022-08-01T00:12:31.065Z,19.22
2022-08-01T00:13:32.515Z,19.32
2022-08-01T00:14:33.999Z,19.31
2022-08-01T00:15:35.584Z,19.28
2022-08-01T00:16:37.644Z,19.37
2022-08-01T00:17:40.022Z,19.24
2022-08-01T00:18:41.479Z,19.29
2022-08-01T00:19:42.981Z,19.38
2022-08-01T00:20:44.770Z,19.41
2022-08-01T00:21:52.231Z,19.43
2022-08-01T00:23:04.441Z,19.47
2022-08-01T00:24:06.023Z,19.43
2022-08-01T00:25:08.105Z,19.42
2022-08-01T00:26:09.994Z,19.42
2022-08-01T00:27:11.446Z,19.33
2022-08-01T00:28:14.879Z,19.27
2022-08-01T00:30:12.644Z,19.22
2022-08-01T00:30:38.926Z,19.23
2022-08-01T00:31:40.505Z,19.26
2022-08-01T00:32:43.145Z,19.29
2022-08-01T00:33:44.644Z,19.29
2022-08-01T00:34:46.915Z,19.27
2022-08-01T00:35:48.837Z,19.19
2022-08-01T00:36:50.327Z,19.13
2022-08-01T00:37:52.601Z,19.17
2022-08-01T00:38:54.177Z,19.17
2022-08-01T00:39:55.643Z,19.17
2022-08-01T00:40:57.759Z,19.23
2022-08-01T00:42:00.125Z,19.25
2022-08-01T00:43:01.729Z,19.19
2022-08-01T00:44:05.717Z,19.19
2022-08-01T00:45:07.843Z,19.01
2022-08-01T00:46:09.302Z,18.85
2022-08-01T00:47:10.795Z,18.89
2022-08-01T00:48:12.777Z,18.90
2022-08-01T00:49:14.326Z,18.90
2022-08-01T00:50:16.398Z,18.90
2022-08-01T00:51:18.362Z,18.72
2022-08-01T00:52:20.135Z,18.64
2022-08-01T00:53:21.612Z,18.76
2022-08-01T00:54:25.535Z,18.86
2022-08-01T00:55:32.300Z,18.95
2022-08-01T00:56:33.817Z,19.03
2022-08-01T00:58:03.576Z,19.02
2022-08-01T00:58:57.552Z,18.98
2022-08-01T00:59:59.617Z,18.93
2022-08-01T01:01:01.650Z,18.95
2022-08-01T01:02:05.651Z,18.95
2022-08-01T01:03:16.590Z,18.82
2022-08-01T01:04:18.560Z,18.83
2022-08-01T01:05:20.601Z,18.85
2022-08-01T01:06:40.936Z,18.93
2022-08-01T01:07:57.681Z,18.96
2022-08-01T01:09:12.200Z,19.02
2022-08-01T01:10:22.440Z,19.01
2022-08-01T01:11:30.494Z,19.02
2022-08-01T01:12:53.189Z,18.94
2022-08-01T01:14:00.306Z,18.98
2022-08-01T01:15:08.030Z,18.89
2022-08-01T01:16:15.670Z,18.90
2022-08-01T01:17:40.666Z,18.93
2022-08-01T01:18:50.266Z,18.93
2022-08-01T01:19:57.141Z,18.85
2022-08-01T01:21:18.107Z,18.89
2022-08-01T01:22:50.214Z,19.07
2022-08-01T01:24:02.377Z,18.99
2022-08-01T01:25:38.376Z,18.95
2022-08-01T01:26:57.671Z,18.69
2022-08-01T01:28:36.187Z,18.96
2022-08-01T01:29:59.254Z,18.90
2022-08-01T01:31:04.974Z,19.09
2022-08-01T01:32:10.772Z,19.35
2022-08-01T01:33:15.092Z,19.22
2022-08-01T01:34:19.513Z,19.13
2022-08-01T01:35:25.140Z,19.13
2022-08-01T01:36:30.220Z,18.82
2022-08-01T01:37:35.132Z,18.84
2022-08-01T01:38:45.325Z,18.91
2022-08-01T01:39:54.332Z,18.89
2022-08-01T01:40:57.705Z,18.85
2022-08-01T01:42:00.670Z,18.83
2022-08-01T01:43:02.108Z,18.90
2022-08-01T01:44:06.696Z,18.96
2022-08-01T01:45:09.562Z,18.95
2022-08-01T01:46:14.072Z,19.03
2022-08-01T01:47:17.193Z,19.12
2022-08-01T01:48:20.631Z,19.14
2022-08-01T01:49:26.650Z,19.18
2022-08-01T01:50:29.651Z,19.36
2022-08-01T01:51:31.652Z,19.33
2022-08-01T01:52:33.885Z,19.26
2022-08-01T01:53:37.236Z,19.32
2022-08-01T01:54:43.336Z,19.28
2022-08-01T01:55:49.703Z,19.32
2022-08-01T01:56:52.908Z,19.37
2022-08-01T01:57:54.841Z,19.35
2022-08-01T01:59:00.884Z,19.22
2022-08-01T02:00:03.158Z,19.20
2022-08-01T02:01:05.283Z,19.23
2022-08-01T02:02:17.966Z,19.22
2022-08-01T02:03:21.708Z,19.21
2022-08-01T02:04:25.579Z,19.20
2022-08-01T02:05:29.051Z,19.15
2022-08-01T02:06:32.899Z,19.15
2022-08-01T02:07:35.972Z,19.08
2022-08-01T02:08:39.438Z,19.07
2022-08-01T02:09:44.226Z,19.10
2022-08-01T02:11:07.333Z,19.06
2022-08-01T02:12:13.083Z,19.06
2022-08-01T02:13:15.301Z,19.07
2022-08-01T02:14:19.095Z,19.02
2022-08-01T02:15:21.188Z,19.05
2022-08-01T02:16:26.137Z,19.15
2022-08-01T02:17:28.695Z,19.08
2022-08-01T02:18:30.799Z,19.08
2022-08-01T02:19:34.552Z,18.93
2022-08-01T02:20:40.260Z,18.89
2022-08-01T02:21:47.191Z,18.87
2022-08-01T02:22:54.358Z,18.81
2022-08-01T02:24:05.720Z,18.86
2022-08-01T02:26:09.726Z,18.80
2022-08-01T02:27:17.912Z,18.80
2022-08-01T02:28:29.166Z,18.75
2022-08-01T02:30:06.406Z,18.75
2022-08-01T02:31:13.184Z,18.76
2022-08-01T02:32:24.583Z,18.82
2022-08-01T02:33:34.815Z,18.84
2022-08-01T02:34:36.788Z,18.85
2022-08-01T02:36:32.204Z,18.90
2022-08-01T02:37:04.575Z,18.95
2022-08-01T02:38:07.281Z,18.92
2022-08-01T02:39:14.612Z,18.94
2022-08-01T02:40:18.649Z,18.93
2022-08-01T02:41:23.323Z,18.95
2022-08-01T02:42:30.850Z,18.92
2022-08-01T02:43:35.397Z,18.87
2022-08-01T02:44:42.395Z,18.89
2022-08-01T02:45:48.551Z,18.91
2022-08-01T02:46:57.195Z,18.89
2022-08-01T02:48:14.035Z,18.88
2022-08-01T02:49:17.990Z,18.86
2022-08-01T02:50:21.196Z,18.85
2022-08-01T02:51:25.804Z,18.85
2022-08-01T02:52:30.073Z,18.90
2022-08-01T02:53:43.768Z,18.83
2022-08-01T02:54:48.770Z,18.77
2022-08-01T02:55:52.142Z,18.79
2022-08-01T02:56:55.779Z,18.72
2022-08-01T02:58:01.962Z,18.80
2022-08-01T02:59:14.347Z,18.82
2022-08-01T03:00:18.117Z,18.77
2022-08-01T03:01:22.165Z,18.66
2022-08-01T03:02:24.770Z,18.56
2022-08-01T03:03:26.926Z,18.52
2022-08-01T03:04:28.937Z,18.51
2022-08-01T03:05:33.398Z,18.53
2022-08-01T03:06:37.078Z,18.46
2022-08-01T03:07:40.691Z,18.50
2022-08-01T03:08:45.165Z,18.34
2022-08-01T03:09:47.723Z,18.27
2022-08-01T03:10:51.869Z,18.20
2022-08-01T03:11:53.699Z,18.35
2022-08-01T03:12:56.644Z,18.32
2022-08-01T03:14:02.952Z,18.35
2022-08-01T03:15:06.830Z,18.44
2022-08-01T03:16:09.211Z,18.42
2022-08-01T03:17:12.438Z,18.33
2022-08-01T03:18:16.919Z,18.24
2022-08-01T03:19:20.686Z,18.19
2022-08-01T03:20:26.146Z,18.15
2022-08-01T03:21:29.779Z,18.12
2022-08-01T03:22:33.989Z,18.20
2022-08-01T03:23:38.594Z,18.12
2022-08-01T03:24:42.954Z,18.12
2022-08-01T03:25:45.983Z,18.08
2022-08-01T03:26:49.915Z,18.10
2022-08-01T03:27:56.452Z,18.08
2022-08-01T03:29:07.366Z,18.11
2022-08-01T03:30:09.747Z,18.09
2022-08-01T03:31:13.550Z,18.16
2022-08-01T03:32:17.903Z,18.18
2022-08-01T03:33:19.483Z,18.11
2022-08-01T03:34:24.054Z,18.13
2022-08-01T03:35:34.679Z,18.18
2022-08-01T03:36:43.809Z,18.24
2022-08-01T03:38:14.707Z,18.17
2022-08-01T03:39:12.801Z,18.24
2022-08-01T03:40:24.576Z,18.25
2022-08-01T03:41:28.538Z,18.29
2022-08-01T03:42:37.609Z,18.22
2022-08-01T03:43:45.501Z,18.03
2022-08-01T03:44:55.146Z,18.20
2022-08-01T03:46:02.209Z,18.06
2022-08-01T03:47:08.402Z,17.97
2022-08-01T03:48:15.340Z,18.03
2022-08-01T03:49:24.477Z,17.91
2022-08-01T03:50:27.639Z,17.88
2022-08-01T03:51:31.790Z,18.04
2022-08-01T03:52:35.156Z,17.76
2022-08-01T03:53:41.102Z,17.61
2022-08-01T03:54:50.643Z,17.86
2022-08-01T03:55:54.210Z,17.72
2022-08-01T03:56:56.072Z,17.73
2022-08-01T03:57:58.764Z,17.78
2022-08-01T03:59:02.663Z,17.66
2022-08-01T04:00:10.204Z,17.64
2022-08-01T04:01:15.962Z,17.40
2022-08-01T04:02:22.758Z,17.17
2022-08-01T04:03:25.641Z,17.00
2022-08-01T04:04:27.442Z,16.94
2022-08-01T04:05:28.920Z,16.93
2022-08-01T04:06:30.552Z,16.99
2022-08-01T04:07:33.962Z,17.10
2022-08-01T04:08:39.381Z,17.21
2022-08-01T04:09:41.280Z,17.35
2022-08-01T04:10:44.428Z,17.57
2022-08-01T04:11:46.533Z,17.74
2022-08-01T04:12:48.489Z,17.98
2022-08-01T04:13:50.032Z,18.02
2022-08-01T04:14:52.207Z,17.99
2022-08-01T04:15:54.303Z,18.06
2022-08-01T04:16:56.551Z,18.10
2022-08-01T04:17:58.469Z,18.06
2022-08-01T04:19:00.532Z,17.99
2022-08-01T04:20:02.099Z,17.99
2022-08-01T04:21:03.809Z,17.96
2022-08-01T04:22:06.739Z,17.64
2022-08-01T04:23:10.537Z,17.33
2022-08-01T04:24:16.098Z,17.15
2022-08-01T04:25:30.343Z,17.10
2022-08-01T04:26:34.011Z,17.13
2022-08-01T04:27:49.797Z,17.17
2022-08-01T04:28:55.748Z,17.19
2022-08-01T04:29:59.884Z,17.36
2022-08-01T04:31:02.389Z,17.46
2022-08-01T04:32:06.376Z,17.60
2022-08-01T04:33:10.989Z,17.61
2022-08-01T04:34:15.263Z,17.60
2022-08-01T04:35:23.190Z,17.70
2022-08-01T04:36:43.828Z,17.75
2022-08-01T04:37:46.829Z,17.86
2022-08-01T04:38:53.409Z,17.91
2022-08-01T04:39:55.937Z,17.95
2022-08-01T04:40:58.816Z,18.06
2022-08-01T04:42:06.491Z,18.18
2022-08-01T04:43:08.752Z,18.27
2022-08-01T04:44:10.339Z,18.19
2022-08-01T04:45:11.958Z,18.18
2022-08-01T04:46:14.952Z,18.17
2022-08-01T04:47:17.063Z,18.14
2022-08-01T04:48:22.721Z,18.19
2022-08-01T04:49:25.418Z,18.28
2022-08-01T04:50:28.292Z,18.30
2022-08-01T04:51:30.226Z,18.40
2022-08-01T04:52:35.956Z,18.45
2022-08-01T04:53:37.613Z,18.54
2022-08-01T04:54:39.124Z,18.59
2022-08-01T04:55:41.196Z,18.60
2022-08-01T04:56:43.135Z,18.58
2022-08-01T04:57:47.446Z,18.60
2022-08-01T04:58:49.459Z,18.55
2022-08-01T04:59:58.098Z,18.70
2022-08-01T05:00:59.595Z,18.79
2022-08-01T05:02:01.123Z,18.75
2022-08-01T05:03:02.599Z,19.02
2022-08-01T05:04:04.374Z,19.14
2022-08-01T05:05:09.183Z,19.25
2022-08-01T05:06:10.755Z,19.23
2022-08-01T05:07:13.969Z,19.33
2022-08-01T05:08:15.462Z,19.25
2022-08-01T05:09:17.233Z,19.27
2022-08-01T05:10:18.984Z,19.30
2022-08-01T05:11:22.562Z,19.38
2022-08-01T05:12:24.183Z,19.41
2022-08-01T05:13:26.701Z,19.48
2022-08-01T05:14:29.823Z,19.53
2022-08-01T05:15:32.351Z,19.65
2022-08-01T05:16:33.823Z,19.56
2022-08-01T05:17:35.408Z,19.35
2022-08-01T05:18:36.953Z,19.32
2022-08-01T05:19:40.032Z,19.35
2022-08-01T05:20:42.364Z,19.39
2022-08-01T05:21:44.387Z,19.41
2022-08-01T05:22:45.951Z,19.41
2022-08-01T05:23:50.510Z,19.39
2022-08-01T05:24:52.456Z,19.35
2022-08-01T05:25:56.892Z,19.40
2022-08-01T05:27:00.702Z,19.47
2022-08-01T05:28:02.623Z,19.48
2022-08-01T05:29:05.013Z,19.49
2022-08-01T05:30:08.905Z,19.58
2022-08-01T05:31:10.810Z,19.68
2022-08-01T05:32:12.436Z,19.76
2022-08-01T05:33:14.019Z,19.87
2022-08-01T05:34:15.735Z,19.76
2022-08-01T05:35:17.208Z,19.81
2022-08-01T05:36:19.131Z,19.77
2022-08-01T05:37:20.721Z,19.72
2022-08-01T05:38:22.198Z,19.72
2022-08-01T05:39:24.443Z,19.74
2022-08-01T05:40:25.935Z,19.78
2022-08-01T05:41:27.573Z,19.82
2022-08-01T05:42:29.080Z,19.85
2022-08-01T05:43:30.980Z,19.95
2022-08-01T05:44:32.934Z,20.05
2022-08-01T05:45:34.382Z,20.09
2022-08-01T05:46:36.816Z,20.11
2022-08-01T05:47:38.246Z,20.17
2022-08-01T05:48:44.673Z,20.20
2022-08-01T05:49:47.030Z,20.26
2022-08-01T05:50:48.845Z,20.17
2022-08-01T05:51:50.882Z,20.16
2022-08-01T05:52:52.303Z,20.19
2022-08-01T05:53:54.521Z,20.26
2022-08-01T05:54:55.965Z,20.28
2022-08-01T05:55:57.948Z,20.31
2022-08-01T05:57:02.565Z,20.34
2022-08-01T05:58:04.302Z,20.35
2022-08-01T05:59:06.281Z,20.42
2022-08-01T06:00:08.544Z,20.47
2022-08-01T06:01:10.054Z,20.51
2022-08-01T06:02:11.700Z,20.56
2022-08-01T06:03:13.376Z,20.51
2022-08-01T06:04:15.270Z,20.65
2022-08-01T06:05:19.999Z,20.70
2022-08-01T06:06:25.494Z,20.73
2022-08-01T06:07:27.148Z,20.79
2022-08-01T06:08:28.707Z,20.88
2022-08-01T06:09:31.909Z,20.91
2022-08-01T06:10:33.617Z,20.94
2022-08-01T06:11:35.214Z,20.96
2022-08-01T06:12:37.674Z,20.97
2022-08-01T06:13:45.315Z,21.00
2022-08-01T06:14:50.196Z,21.08
2022-08-01T06:15:52.630Z,21.11
2022-08-01T06:16:54.186Z,21.11
2022-08-01T06:17:56.191Z,21.29
2022-08-01T06:18:57.699Z,21.36
2022-08-01T06:19:59.678Z,21.43
2022-08-01T06:21:01.160Z,21.53
2022-08-01T06:22:03.050Z,21.47
2022-08-01T06:23:05.856Z,21.48
2022-08-01T06:24:26.583Z,21.46
2022-08-01T06:25:28.085Z,21.44
2022-08-01T06:26:29.543Z,21.42
2022-08-01T06:27:31.092Z,21.41
2022-08-01T06:28:32.583Z,21.38
2022-08-01T06:29:34.486Z,21.38
2022-08-01T06:30:35.958Z,21.39
2022-08-01T06:31:37.877Z,21.27
2022-08-01T06:32:39.365Z,21.35
2022-08-01T06:33:41.000Z,21.37
2022-08-01T06:34:42.921Z,21.38
2022-08-01T06:35:45.077Z,21.43
2022-08-01T06:36:46.569Z,21.62
2022-08-01T06:37:48.158Z,21.46
2022-08-01T06:38:50.194Z,21.46
2022-08-01T06:39:51.684Z,21.41
2022-08-01T06:40:53.299Z,21.42
2022-08-01T06:41:54.784Z,21.29
2022-08-01T06:42:56.276Z,21.19
2022-08-01T06:43:57.852Z,21.27
2022-08-01T06:44:59.332Z,21.29
2022-08-01T06:46:00.859Z,21.39
2022-08-01T06:47:02.396Z,21.38
2022-08-01T06:48:04.689Z,21.32
2022-08-01T06:49:06.786Z,21.37
2022-08-01T06:50:11.233Z,21.23
2022-08-01T06:51:16.492Z,21.25
2022-08-01T06:52:18.031Z,21.28
2022-08-01T06:53:19.472Z,21.33
2022-08-01T06:54:21.009Z,21.40
2022-08-01T06:55:22.536Z,21.48
2022-08-01T06:56:24.158Z,21.60
2022-08-01T06:57:25.670Z,21.65
2022-08-01T06:58:31.661Z,21.64
2022-08-01T06:59:33.570Z,21.62
2022-08-01T07:00:35.111Z,21.61
2022-08-01T07:01:37.391Z,21.64
2022-08-01T07:02:39.325Z,21.37
2022-08-01T07:03:52.451Z,21.35
2022-08-01T07:04:56.241Z,21.37
2022-08-01T07:05:57.694Z,21.42
2022-08-01T07:06:59.625Z,21.47
2022-08-01T07:08:01.165Z,21.47
2022-08-01T07:09:08.487Z,21.44
2022-08-01T07:10:12.592Z,21.60
2022-08-01T07:11:14.032Z,21.65
2022-08-01T07:12:15.485Z,21.64
2022-08-01T07:13:21.619Z,21.62
2022-08-01T07:14:24.556Z,21.65
2022-08-01T07:15:27.650Z,21.66
2022-08-01T07:16:29.297Z,21.72
2022-08-01T07:17:30.819Z,21.77
2022-08-01T07:18:32.521Z,21.75
2022-08-01T07:19:34.481Z,21.89
2022-08-01T07:20:51.820Z,21.91
2022-08-01T07:21:54.583Z,21.89
2022-08-01T07:22:56.710Z,21.95
2022-08-01T07:23:58.337Z,21.71
2022-08-01T07:25:00.653Z,21.63
2022-08-01T07:26:03.568Z,21.73
2022-08-01T07:27:11.538Z,21.80
2022-08-01T07:28:25.872Z,21.95
2022-08-01T07:29:28.142Z,22.06
2022-08-01T07:30:29.628Z,22.26
2022-08-01T07:31:32.507Z,22.35
2022-08-01T07:32:35.940Z,22.30
2022-08-01T07:33:47.687Z,22.09
2022-08-01T07:34:50.719Z,22.02
2022-08-01T07:35:52.552Z,22.04
2022-08-01T07:36:54.246Z,22.06
2022-08-01T07:37:55.808Z,22.04
2022-08-01T07:38:57.895Z,22.08
2022-08-01T07:40:00.106Z,22.12
2022-08-01T07:41:02.097Z,22.32
2022-08-01T07:42:13.414Z,22.50
2022-08-01T07:43:15.110Z,22.55
2022-08-01T07:44:17.519Z,22.49
2022-08-01T07:45:19.059Z,22.71
2022-08-01T07:46:20.647Z,22.93
2022-08-01T07:47:26.190Z,22.90
2022-08-01T07:48:28.062Z,22.94
2022-08-01T07:49:29.715Z,23.11
2022-08-01T07:50:34.170Z,23.24
2022-08-01T07:51:35.828Z,23.06
2022-08-01T07:52:37.434Z,23.03
2022-08-01T07:53:38.930Z,23.08
2022-08-01T07:54:40.398Z,22.99
2022-08-01T07:55:42.091Z,22.95
2022-08-01T07:56:47.638Z,23.04
2022-08-01T07:57:49.219Z,22.88
2022-08-01T07:58:51.309Z,23.05
2022-08-01T07:59:52.849Z,23.11
2022-08-01T08:00:54.310Z,23.06
2022-08-01T08:01:55.946Z,23.12
2022-08-01T08:02:59.888Z,23.13
2022-08-01T08:04:01.336Z,23.15
2022-08-01T08:05:04.767Z,23.05
2022-08-01T08:06:07.126Z,22.94
2022-08-01T08:07:09.070Z,22.99
2022-08-01T08:08:12.901Z,23.14
2022-08-01T08:09:16.201Z,23.23
2022-08-01T08:10:17.777Z,23.28
2022-08-01T08:11:19.739Z,23.17
2022-08-01T08:12:28.818Z,23.12
2022-08-01T08:13:31.601Z,23.34
2022-08-01T08:14:33.406Z,23.41
2022-08-01T08:15:34.876Z,23.63
2022-08-01T08:16:36.360Z,23.71
2022-08-01T08:17:37.867Z,23.80
2022-08-01T08:18:39.391Z,23.91
2022-08-01T08:19:42.382Z,23.98
2022-08-01T08:20:44.505Z,24.06
2022-08-01T08:21:45.988Z,24.14
2022-08-01T08:22:47.919Z,24.26
2022-08-01T08:24:08.132Z,24.22
2022-08-01T08:25:11.750Z,24.24
2022-08-01T08:26:13.859Z,24.27
2022-08-01T08:27:15.939Z,24.19
2022-08-01T08:28:17.501Z,23.99
2022-08-01T08:29:19.026Z,24.00
2022-08-01T08:30:20.601Z,24.08
2022-08-01T08:31:24.965Z,24.10
2022-08-01T08:32:27.453Z,24.16
2022-08-01T08:33:28.923Z,24.19
2022-08-01T08:34:30.951Z,24.08
2022-08-01T08:35:53.289Z,24.05
2022-08-01T08:36:57.020Z,24.09
2022-08-01T08:37:58.496Z,23.82
2022-08-01T08:39:02.311Z,23.83
2022-08-01T08:40:06.073Z,23.95
2022-08-01T08:41:08.409Z,24.00
2022-08-01T08:42:11.704Z,23.82
2022-08-01T08:43:13.220Z,23.86
2022-08-01T08:44:15.312Z,24.04
2022-08-01T08:45:17.494Z,23.86
2022-08-01T08:46:19.888Z,23.72
2022-08-01T08:47:33.377Z,23.78
2022-08-01T08:48:35.741Z,23.74
2022-08-01T08:49:37.649Z,23.68
2022-08-01T08:50:47.004Z,23.60
2022-08-01T08:51:51.413Z,23.54
2022-08-01T08:52:55.628Z,23.54
2022-08-01T08:53:58.103Z,23.71
2022-08-01T08:55:00.246Z,23.89
2022-08-01T08:56:02.780Z,24.00
2022-08-01T08:57:06.102Z,24.02
2022-08-01T08:58:07.711Z,24.11
2022-08-01T08:59:09.760Z,24.24
2022-08-01T09:00:13.037Z,24.20
2022-08-01T09:01:14.784Z,24.30
2022-08-01T09:02:16.407Z,24.39
2022-08-01T09:03:18.226Z,24.49
2022-08-01T09:04:23.531Z,24.56
2022-08-01T09:05:38.566Z,24.76
2022-08-01T09:06:41.412Z,24.84
2022-08-01T09:07:42.884Z,24.82
2022-08-01T09:08:44.395Z,24.81
2022-08-01T09:09:45.893Z,24.75
2022-08-01T09:10:49.719Z,24.56
2022-08-01T09:11:56.967Z,24.46
2022-08-01T09:13:11.911Z,24.33
2022-08-01T09:14:23.287Z,24.30
2022-08-01T09:15:39.520Z,24.28
2022-08-01T09:16:48.505Z,24.41
2022-08-01T09:17:50.915Z,24.31
2022-08-01T09:18:53.521Z,24.21
2022-08-01T09:19:57.535Z,24.18
2022-08-01T09:21:15.310Z,24.14
2022-08-01T09:22:23.863Z,24.33
2022-08-01T09:23:36.118Z,24.38
2022-08-01T09:24:38.179Z,24.34
2022-08-01T09:25:56.727Z,24.30
2022-08-01T09:27:03.366Z,24.28
2022-08-01T09:28:07.099Z,24.37
2022-08-01T09:29:28.962Z,24.41
2022-08-01T09:30:40.797Z,24.47
2022-08-01T09:31:47.353Z,24.52
2022-08-01T09:33:11.527Z,24.52
2022-08-01T09:34:31.411Z,24.58
2022-08-01T09:35:43.520Z,24.61
2022-08-01T09:36:54.255Z,24.56
2022-08-01T09:38:35.101Z,24.49
2022-08-01T09:39:38.672Z,24.34
2022-08-01T09:40:59.006Z,24.33
2022-08-01T09:42:02.525Z,24.38
2022-08-01T09:43:14.955Z,24.42
2022-08-01T09:44:18.731Z,24.42
2022-08-01T09:45:41.311Z,24.27
2022-08-01T09:46:56.397Z,23.99
2022-08-01T09:47:57.958Z,23.98
2022-08-01T09:49:02.015Z,24.06
2022-08-01T09:50:11.269Z,24.21
2022-08-01T09:51:13.977Z,24.27
2022-08-01T09:52:35.768Z,24.34
2022-08-01T09:53:51.382Z,24.38
2022-08-01T09:55:00.443Z,24.16
2022-08-01T09:56:12.593Z,24.11
2022-08-01T09:57:19.821Z,24.15
2022-08-01T09:58:21.982Z,24.14
2022-08-01T09:59:57.284Z,24.21
2022-08-01T10:01:04.974Z,24.27
2022-08-01T10:02:09.345Z,24.24
2022-08-01T10:03:28.083Z,24.02
2022-08-01T10:04:29.824Z,23.94
2022-08-01T10:05:37.234Z,23.97
2022-08-01T10:06:41.004Z,23.98
2022-08-01T10:08:01.432Z,24.05
2022-08-01T10:09:04.852Z,24.15
2022-08-01T10:10:15.193Z,24.19
2022-08-01T10:11:17.580Z,24.35
2022-08-01T10:12:21.007Z,24.30
2022-08-01T10:13:23.075Z,24.28
2022-08-01T10:14:27.528Z,24.42
2022-08-01T10:15:36.788Z,24.43
2022-08-01T10:16:40.573Z,24.52
2022-08-01T10:17:50.621Z,24.64
2022-08-01T10:18:55.144Z,24.68
2022-08-01T10:20:00.919Z,24.77
2022-08-01T10:21:04.154Z,24.84
2022-08-01T10:22:17.555Z,24.87
2022-08-01T10:23:23.657Z,24.93
2022-08-01T10:24:43.725Z,24.94
2022-08-01T10:25:46.967Z,24.88
2022-08-01T10:26:52.421Z,24.88
2022-08-01T10:27:57.678Z,24.87
2022-08-01T10:29:00.754Z,24.77
2022-08-01T10:30:19.138Z,24.74
2022-08-01T10:31:30.571Z,24.72
2022-08-01T10:32:33.863Z,24.74
2022-08-01T10:33:52.042Z,24.82
2022-08-01T10:34:56.360Z,24.83
2022-08-01T10:35:59.299Z,24.88
2022-08-01T10:37:05.766Z,24.89
2022-08-01T10:38:13.955Z,24.93
2022-08-01T10:39:19.961Z,25.05
2022-08-01T10:40:30.967Z,25.09
2022-08-01T10:41:34.435Z,25.08
2022-08-01T10:42:36.603Z,25.04
2022-08-01T10:43:38.089Z,25.11
2022-08-01T10:44:41.697Z,25.12
2022-08-01T10:45:46.229Z,25.10
2022-08-01T10:46:51.781Z,25.03
2022-08-01T10:48:05.335Z,25.00
2022-08-01T10:49:16.885Z,25.04
2022-08-01T10:50:27.901Z,25.03
2022-08-01T10:51:52.157Z,25.01
2022-08-01T10:53:16.144Z,24.84
2022-08-01T10:54:18.710Z,24.88
2022-08-01T10:55:20.188Z,24.92
2022-08-01T10:56:26.966Z,24.85
2022-08-01T10:57:48.889Z,24.91
2022-08-01T10:59:05.889Z,24.98
2022-08-01T11:00:09.162Z,24.85
2022-08-01T11:01:16.321Z,24.71
2022-08-01T11:02:32.218Z,24.63
2022-08-01T11:03:56.246Z,24.68
2022-08-01T11:05:10.728Z,24.81
2022-08-01T11:06:24.598Z,24.72
2022-08-01T11:07:49.544Z,24.61
2022-08-01T11:08:53.678Z,24.56
2022-08-01T11:10:15.109Z,24.55
2022-08-01T11:11:16.631Z,24.61
2022-08-01T11:12:23.527Z,24.61
2022-08-01T11:13:58.977Z,24.59
2022-08-01T11:15:03.115Z,24.48
2022-08-01T11:16:36.550Z,24.47
2022-08-01T11:17:42.243Z,24.50
2022-08-01T11:18:51.201Z,24.59
2022-08-01T11:20:13.008Z,24.64
2022-08-01T11:21:59.150Z,24.66
2022-08-01T11:22:58.596Z,24.60
2022-08-01T11:24:00.083Z,24.59
2022-08-01T11:25:02.624Z,24.61
2022-08-01T11:26:10.470Z,24.51
2022-08-01T11:27:28.848Z,24.51
2022-08-01T11:28:36.583Z,24.50
2022-08-01T11:29:38.606Z,24.52
2022-08-01T11:30:44.624Z,24.62
2022-08-01T11:31:46.262Z,24.70
2022-08-01T11:33:12.538Z,24.76
2022-08-01T11:34:15.871Z,24.87
2022-08-01T11:35:18.728Z,24.93
2022-08-01T11:36:55.909Z,25.02
2022-08-01T11:37:45.412Z,25.17
2022-08-01T11:38:58.799Z,25.25
2022-08-01T11:40:20.432Z,25.29
2022-08-01T11:41:37.376Z,25.31
2022-08-01T11:42:40.693Z,25.33
2022-08-01T11:44:02.154Z,25.36
2022-08-01T11:45:03.975Z,25.40
2022-08-01T11:46:05.827Z,25.42
2022-08-01T11:47:13.651Z,25.43
2022-08-01T11:48:27.534Z,25.33
2022-08-01T11:49:38.467Z,25.36
2022-08-01T11:50:41.961Z,25.28
2022-08-01T11:51:43.338Z,25.22
2022-08-01T11:52:46.557Z,25.17
2022-08-01T11:53:48.112Z,25.17
2022-08-01T11:54:52.581Z,25.23
2022-08-01T11:55:55.328Z,25.26
2022-08-01T11:57:00.158Z,25.28
2022-08-01T11:58:08.939Z,25.32
2022-08-01T11:59:24.460Z,25.16
2022-08-01T12:00:26.319Z,25.14
2022-08-01T12:01:29.760Z,25.21
2022-08-01T12:02:34.927Z,25.23
2022-08-01T12:03:36.994Z,25.25
2022-08-01T12:04:48.702Z,25.41
2022-08-01T12:05:50.487Z,25.49
2022-08-01T12:06:51.951Z,25.56
2022-08-01T12:07:57.132Z,25.61
2022-08-01T12:09:16.442Z,25.68
2022-08-01T12:10:20.348Z,25.60
2022-08-01T12:11:21.828Z,25.57
2022-08-01T12:12:23.348Z,25.45
2022-08-01T12:13:24.913Z,25.46
2022-08-01T12:14:26.598Z,25.47
2022-08-01T12:15:34.580Z,25.44
2022-08-01T12:16:36.119Z,25.50
2022-08-01T12:17:47.201Z,25.51
2022-08-01T12:19:00.290Z,25.38
2022-08-01T12:20:03.555Z,25.33
2022-08-01T12:21:05.951Z,25.40
2022-08-01T12:22:15.160Z,25.57
2022-08-01T12:23:17.419Z,25.64
2022-08-01T12:24:23.128Z,25.75
2022-08-01T12:25:25.417Z,25.88
2022-08-01T12:26:42.713Z,26.07
2022-08-01T12:27:46.925Z,26.17
2022-08-01T12:28:48.384Z,26.26
2022-08-01T12:29:50.083Z,26.40
2022-08-01T12:30:51.901Z,26.52
2022-08-01T12:31:53.411Z,26.59
2022-08-01T12:32:55.753Z,26.74
2022-08-01T12:33:57.176Z,26.85
2022-08-01T12:35:17.901Z,26.73
2022-08-01T12:36:29.943Z,26.78
2022-08-01T12:37:31.466Z,26.97
2022-08-01T12:38:33.950Z,27.01
2022-08-01T12:39:36.127Z,27.03
2022-08-01T12:40:45.505Z,27.18
2022-08-01T12:41:47.418Z,27.21
2022-08-01T12:42:54.569Z,27.31
2022-08-01T12:43:56.259Z,27.36
2022-08-01T12:44:57.788Z,27.59
2022-08-01T12:46:01.893Z,27.50
2022-08-01T12:47:06.446Z,27.35
2022-08-01T12:48:12.634Z,27.32
2022-08-01T12:49:14.860Z,27.33
2022-08-01T12:50:24.754Z,27.33
2022-08-01T12:51:26.777Z,27.40
2022-08-01T12:52:28.330Z,27.45
2022-08-01T12:53:40.932Z,27.45
2022-08-01T12:55:18.239Z,27.64
2022-08-01T12:56:32.997Z,27.77
2022-08-01T12:57:37.314Z,27.84
2022-08-01T12:58:39.573Z,27.91
2022-08-01T12:59:41.323Z,27.88
2022-08-01T13:00:45.702Z,27.87
2022-08-01T13:01:48.131Z,27.84
2022-08-01T13:03:01.968Z,27.67
2022-08-01T13:04:07.397Z,27.53
2022-08-01T13:05:10.585Z,27.34
2022-08-01T13:06:16.926Z,27.38
2022-08-01T13:07:19.472Z,26.57
2022-08-01T13:08:34.288Z,26.26
2022-08-01T13:09:35.880Z,26.38
2022-08-01T13:10:37.720Z,26.49
2022-08-01T13:11:41.838Z,26.55
2022-08-01T13:13:00.556Z,26.60
2022-08-01T13:14:02.336Z,26.63
2022-08-01T13:15:35.454Z,26.62
2022-08-01T13:17:03.373Z,26.50
2022-08-01T13:18:27.034Z,26.52
2022-08-01T13:19:45.308Z,26.54
2022-08-01T13:20:50.553Z,26.56
2022-08-01T13:21:58.798Z,26.58
2022-08-01T13:23:15.286Z,26.59
2022-08-01T13:24:25.443Z,26.59
2022-08-01T13:25:29.136Z,26.52
2022-08-01T13:26:50.293Z,26.39
2022-08-01T13:28:18.395Z,26.35
2022-08-01T13:29:23.992Z,26.44
2022-08-01T13:30:25.500Z,26.50
2022-08-01T13:31:34.552Z,26.53
2022-08-01T13:32:36.472Z,26.60
2022-08-01T13:33:46.112Z,26.64
2022-08-01T13:35:05.770Z,26.75
2022-08-01T13:36:07.906Z,26.67
2022-08-01T13:37:09.843Z,26.72
2022-08-01T13:38:11.295Z,26.88
2022-08-01T13:39:31.250Z,27.00
2022-08-01T13:40:32.857Z,27.05
2022-08-01T13:41:35.388Z,27.17
2022-08-01T13:42:37.527Z,27.21
2022-08-01T13:43:59.005Z,27.34
2022-08-01T13:45:00.586Z,27.45
2022-08-01T13:46:05.570Z,27.43
2022-08-01T13:47:14.768Z,27.33
2022-08-01T13:48:18.980Z,27.44
2022-08-01T13:49:20.716Z,27.15
2022-08-01T13:50:24.390Z,26.91
2022-08-01T13:51:25.854Z,26.83
2022-08-01T13:52:27.688Z,26.78
2022-08-01T13:53:29.715Z,26.83
2022-08-01T13:54:32.586Z,26.85
2022-08-01T13:55:35.257Z,26.72
2022-08-01T13:56:37.185Z,26.80
2022-08-01T13:57:39.180Z,26.93
2022-08-01T13:58:40.644Z,26.89
2022-08-01T13:59:42.103Z,26.92
2022-08-01T14:00:43.845Z,26.88
2022-08-01T14:01:45.805Z,26.85
2022-08-01T14:02:47.723Z,26.77
2022-08-01T14:03:49.731Z,26.77
2022-08-01T14:04:51.175Z,26.76
2022-08-01T14:05:58.838Z,26.84
2022-08-01T14:07:05.489Z,26.84
2022-08-01T14:08:11.283Z,26.87